createdAt,value
2018-12-01T00:01:33.271Z,99.90
2018-12-01T00:04:07.902Z,99.90
2018-12-01T00:06:43.008Z,99.90
2018-12-01T00:09:17.661Z,99.90
2018-12-01T00:11:55.429Z,99.90
2018-12-01T00:14:30.286Z,99.90
2018-12-01T00:17:05.195Z,99.90
2018-12-01T00:19:39.831Z,99.90
2018-12-01T00:22:14.989Z,99.90
2018-12-01T00:24:49.909Z,99.90
2018-12-01T00:27:24.849Z,99.90
2018-12-01T00:29:59.717Z,99.90
2018-12-01T00:32:34.553Z,99.90
2018-12-01T00:35:11.280Z,99.90
2018-12-01T00:37:46.051Z,99.90
2018-12-01T00:40:21.694Z,99.90
2018-12-01T00:42:56.452Z,99.90
2018-12-01T00:45:31.274Z,99.90
2018-12-01T00:48:06.151Z,99.90
2018-12-01T00:50:41.136Z,99.90
2018-12-01T00:53:15.839Z,99.90
2018-12-01T00:55:50.963Z,99.90
2018-12-01T00:58:25.863Z,99.90
2018-12-01T01:01:00.761Z,99.90
2018-12-01T01:03:35.576Z,99.90
2018-12-01T01:06:10.496Z,99.90
2018-12-01T01:08:45.432Z,99.90
2018-12-01T01:11:20.114Z,99.90
2018-12-01T01:13:54.936Z,99.90
2018-12-01T01:16:29.540Z,99.90
2018-12-01T01:19:04.577Z,99.90
2018-12-01T01:21:39.565Z,99.90
2018-12-01T01:24:14.341Z,99.90
2018-12-01T01:26:49.265Z,99.90
2018-12-01T01:29:24.346Z,99.90
2018-12-01T01:31:59.198Z,99.90
2018-12-01T01:34:33.907Z,99.90
2018-12-01T01:37:08.688Z,99.90
2018-12-01T01:39:43.436Z,99.90
2018-12-01T01:42:18.178Z,99.90
2018-12-01T01:44:52.984Z,99.90
2018-12-01T01:47:27.670Z,99.90
2018-12-01T01:50:02.554Z,99.90
2018-12-01T01:52:37.265Z,99.90
2018-12-01T01:55:12.614Z,99.90
2018-12-01T01:57:47.413Z,99.90
2018-12-01T02:00:22.355Z,99.90
2018-12-01T02:02:57.171Z,99.90
2018-12-01T02:05:32.150Z,99.90
2018-12-01T02:08:06.961Z,99.90
2018-12-01T02:10:41.790Z,99.90
2018-12-01T02:13:16.654Z,99.90
2018-12-01T02:15:51.515Z,99.90
2018-12-01T02:18:26.290Z,99.90
2018-12-01T02:21:01.184Z,99.90
2018-12-01T02:23:36.084Z,99.90
2018-12-01T02:26:10.942Z,99.90
2018-12-01T02:28:45.633Z,99.90
2018-12-01T02:31:20.534Z,99.90
2018-12-01T02:33:55.499Z,99.90
2018-12-01T02:36:30.398Z,99.90
2018-12-01T02:39:07.646Z,99.90
2018-12-01T02:41:42.547Z,99.90
2018-12-01T02:44:28.645Z,99.90
2018-12-01T02:47:09.702Z,99.90
2018-12-01T02:49:44.377Z,99.90
2018-12-01T02:52:19.188Z,99.90
2018-12-01T02:54:54.081Z,99.90
2018-12-01T02:57:28.817Z,99.90
2018-12-01T03:00:05.581Z,99.90
2018-12-01T03:02:40.386Z,99.90
2018-12-01T03:05:15.178Z,99.90
2018-12-01T03:07:50.184Z,99.90
2018-12-01T03:10:24.918Z,99.90
2018-12-01T03:12:59.871Z,99.90
2018-12-01T03:15:34.987Z,99.90
2018-12-01T03:18:13.646Z,99.90
2018-12-01T03:20:44.611Z,99.90
2018-12-01T03:23:19.725Z,99.90
2018-12-01T03:25:56.231Z,99.90
2018-12-01T03:28:31.053Z,99.90
2018-12-01T03:31:05.921Z,99.90
2018-12-01T03:33:40.867Z,99.90
2018-12-01T03:36:15.766Z,99.90
2018-12-01T03:38:50.512Z,99.90
2018-12-01T03:41:25.935Z,99.90
2018-12-01T03:44:00.695Z,99.90
2018-12-01T03:46:35.569Z,99.90
2018-12-01T03:49:10.431Z,99.90
2018-12-01T03:51:45.251Z,99.90
2018-12-01T03:54:20.013Z,99.90
2018-12-01T03:56:54.817Z,99.90
2018-12-01T04:02:25.653Z,99.90
2018-12-01T04:05:00.375Z,99.90
2018-12-01T04:07:40.436Z,99.90
2018-12-01T04:10:15.303Z,99.90
2018-12-01T04:12:50.094Z,99.90
2018-12-01T04:15:25.753Z,99.90
2018-12-01T04:18:00.397Z,99.90
2018-12-01T04:20:35.679Z,99.90
2018-12-01T04:23:10.440Z,99.90
2018-12-01T04:25:45.457Z,99.90
2018-12-01T04:28:20.290Z,99.90
2018-12-01T04:30:55.250Z,99.90
2018-12-01T04:33:29.906Z,99.90
2018-12-01T04:36:05.123Z,99.90
2018-12-01T04:38:40.119Z,99.90
2018-12-01T04:41:15.138Z,99.90
2018-12-01T04:43:49.776Z,99.90
2018-12-01T04:46:24.593Z,99.90
2018-12-01T04:48:59.302Z,99.90
2018-12-01T04:51:34.299Z,99.90
2018-12-01T04:54:08.915Z,99.90
2018-12-01T04:56:43.820Z,99.90
2018-12-01T04:59:18.434Z,99.90
2018-12-01T05:01:53.297Z,99.90
2018-12-01T05:04:28.023Z,99.90
2018-12-01T05:07:03.095Z,99.90
2018-12-01T05:09:37.804Z,99.90
2018-12-01T05:12:12.551Z,99.90
2018-12-01T05:14:47.412Z,99.90
2018-12-01T05:17:22.341Z,99.90
2018-12-01T05:19:57.597Z,99.90
2018-12-01T05:22:32.417Z,99.90
2018-12-01T05:25:08.348Z,99.90
2018-12-01T05:27:43.091Z,99.90
2018-12-01T05:30:22.984Z,99.90
2018-12-01T05:32:57.766Z,99.90
2018-12-01T05:35:32.580Z,99.90
2018-12-01T05:38:07.530Z,99.90
2018-12-01T05:40:42.512Z,99.90
2018-12-01T05:43:17.317Z,99.90
2018-12-01T05:45:52.208Z,99.90
2018-12-01T05:48:27.030Z,99.90
2018-12-01T05:51:01.779Z,99.90
2018-12-01T05:53:36.603Z,99.90
2018-12-01T05:56:11.238Z,99.90
2018-12-01T05:58:46.012Z,99.90
2018-12-01T06:01:20.908Z,99.90
2018-12-01T06:03:55.780Z,99.90
2018-12-01T06:06:30.598Z,99.90
2018-12-01T06:09:08.128Z,99.90
2018-12-01T06:11:43.235Z,99.90
2018-12-01T06:14:18.112Z,99.90
2018-12-01T06:16:52.845Z,99.90
2018-12-01T06:19:27.695Z,99.90
2018-12-01T06:22:02.645Z,99.90
2018-12-01T06:24:37.462Z,99.90
2018-12-01T06:27:12.266Z,99.90
2018-12-01T06:29:47.207Z,99.90
2018-12-01T06:32:22.155Z,99.90
2018-12-01T06:35:03.712Z,99.90
2018-12-01T06:37:38.404Z,99.90
2018-12-01T06:40:15.510Z,99.90
2018-12-01T06:42:50.421Z,99.90
2018-12-01T06:45:26.078Z,99.90
2018-12-01T06:48:00.717Z,99.90
2018-12-01T06:50:35.717Z,99.90
2018-12-01T06:53:10.593Z,99.90
2018-12-01T06:55:45.789Z,99.90
2018-12-01T06:58:20.439Z,99.90
2018-12-01T07:00:55.307Z,99.90
2018-12-01T07:03:31.398Z,99.90
2018-12-01T07:06:06.243Z,99.90
2018-12-01T07:08:41.004Z,99.90
2018-12-01T07:11:15.854Z,99.90
2018-12-01T07:13:50.762Z,99.90
2018-12-01T07:16:25.698Z,99.90
2018-12-01T07:19:17.240Z,99.90
2018-12-01T07:21:52.191Z,99.90
2018-12-01T07:24:31.661Z,99.90
2018-12-01T07:27:06.590Z,99.90
2018-12-01T07:29:41.465Z,99.90
2018-12-01T07:32:16.324Z,99.90
2018-12-01T07:34:51.322Z,99.90
2018-12-01T07:37:26.390Z,99.90
2018-12-01T07:40:01.260Z,99.90
2018-12-01T07:42:36.308Z,99.90
2018-12-01T07:45:12.257Z,99.90
2018-12-01T07:47:47.294Z,99.90
2018-12-01T07:50:21.915Z,99.90
2018-12-01T07:52:56.744Z,99.90
2018-12-01T07:55:31.440Z,99.90
2018-12-01T07:58:06.125Z,99.90
2018-12-01T08:00:40.947Z,99.90
2018-12-01T08:03:15.683Z,99.90
2018-12-01T08:05:50.611Z,99.90
2018-12-01T08:08:25.404Z,99.90
2018-12-01T08:11:00.110Z,99.90
2018-12-01T08:13:34.987Z,99.90
2018-12-01T08:16:09.799Z,99.90
2018-12-01T08:18:44.544Z,99.90
2018-12-01T08:21:19.393Z,99.90
2018-12-01T08:23:54.244Z,99.90
2018-12-01T08:26:29.252Z,99.90
2018-12-01T08:29:04.114Z,99.90
2018-12-01T08:31:38.957Z,99.90
2018-12-01T08:34:13.878Z,99.90
2018-12-01T08:36:48.829Z,99.90
2018-12-01T08:39:26.526Z,99.90
2018-12-01T08:42:01.487Z,99.90
2018-12-01T08:44:37.371Z,99.90
2018-12-01T08:47:14.107Z,99.90
2018-12-01T08:49:49.323Z,99.90
2018-12-01T08:52:24.195Z,99.90
2018-12-01T08:54:59.293Z,99.90
2018-12-01T08:57:34.296Z,99.90
2018-12-01T09:00:22.136Z,99.90
2018-12-01T09:03:10.840Z,99.90
2018-12-01T09:05:46.098Z,99.90
2018-12-01T09:08:21.233Z,99.90
2018-12-01T09:10:56.817Z,99.90
2018-12-01T09:13:31.960Z,99.90
2018-12-01T09:16:07.885Z,99.90
2018-12-01T09:18:42.639Z,99.90
2018-12-01T09:21:17.393Z,99.90
2018-12-01T09:23:52.597Z,99.90
2018-12-01T09:26:28.030Z,99.90
2018-12-01T09:29:06.727Z,99.90
2018-12-01T09:31:42.622Z,99.90
2018-12-01T09:34:18.782Z,99.90
2018-12-01T09:36:56.953Z,99.90
2018-12-01T09:39:32.893Z,99.90
2018-12-01T09:42:08.872Z,99.90
2018-12-01T09:44:44.856Z,99.90
2018-12-01T09:47:20.471Z,99.90
2018-12-01T09:49:57.845Z,99.90
2018-12-01T09:52:34.053Z,99.90
2018-12-01T09:55:13.855Z,99.90
2018-12-01T09:57:48.760Z,99.90
2018-12-01T10:00:27.738Z,99.90
2018-12-01T10:03:07.205Z,99.90
2018-12-01T10:05:42.272Z,99.90
2018-12-01T10:08:17.342Z,99.90
2018-12-01T10:10:53.201Z,99.90
2018-12-01T10:13:28.240Z,99.90
2018-12-01T10:16:04.856Z,99.90
2018-12-01T10:18:40.082Z,99.90
2018-12-01T10:21:15.500Z,99.90
2018-12-01T10:23:50.742Z,99.90
2018-12-01T10:26:26.985Z,99.90
2018-12-01T10:29:02.530Z,99.90
2018-12-01T10:31:37.553Z,99.90
2018-12-01T10:34:12.744Z,99.90
2018-12-01T10:36:48.499Z,99.90
2018-12-01T10:39:25.096Z,99.90
2018-12-01T10:42:03.618Z,99.90
2018-12-01T10:44:35.747Z,99.90
2018-12-01T10:47:10.679Z,99.90
2018-12-01T10:49:45.773Z,99.40
2018-12-01T10:52:20.581Z,98.70
2018-12-01T10:57:17.385Z,99.90
2018-12-01T10:59:52.451Z,99.20
2018-12-01T11:02:32.673Z,98.80
2018-12-01T11:05:07.754Z,98.00
2018-12-01T11:07:43.901Z,97.70
2018-12-01T11:10:18.936Z,97.50
2018-12-01T11:12:54.017Z,97.50
2018-12-01T11:15:28.904Z,98.10
2018-12-01T11:18:04.225Z,98.30
2018-12-01T11:20:39.390Z,97.40
2018-12-01T11:23:14.290Z,98.00
2018-12-01T11:25:51.380Z,98.00
2018-12-01T11:28:27.912Z,98.60
2018-12-01T11:31:04.439Z,98.20
2018-12-01T11:33:46.748Z,97.50
2018-12-01T11:36:22.270Z,98.20
2018-12-01T11:38:58.410Z,98.40
2018-12-01T11:41:33.975Z,98.30
2018-12-01T11:44:09.049Z,98.80
2018-12-01T11:46:44.087Z,98.20
2018-12-01T11:49:19.025Z,98.00
2018-12-01T11:51:54.057Z,98.60
2018-12-01T11:54:29.308Z,98.20
2018-12-01T11:57:05.315Z,98.20
2018-12-01T11:59:40.836Z,98.20
2018-12-01T12:02:16.387Z,98.00
2018-12-01T12:04:51.562Z,97.70
2018-12-01T12:07:38.024Z,97.00
2018-12-01T12:10:13.424Z,97.10
2018-12-01T12:12:49.442Z,96.40
2018-12-01T12:15:25.810Z,96.50
2018-12-01T12:18:03.057Z,95.80
2018-12-01T12:20:39.110Z,95.20
2018-12-01T12:23:14.128Z,95.30
2018-12-01T12:25:49.119Z,95.20
2018-12-01T12:28:24.107Z,94.80
2018-12-01T12:30:59.291Z,96.90
2018-12-01T12:33:34.944Z,96.40
2018-12-01T12:36:10.668Z,96.90
2018-12-01T12:38:45.672Z,96.60
2018-12-01T12:41:20.784Z,96.60
2018-12-01T12:43:55.913Z,96.40
2018-12-01T12:46:31.518Z,96.90
2018-12-01T12:49:06.877Z,96.60
2018-12-01T12:51:41.744Z,97.00
2018-12-01T12:54:16.824Z,97.40
2018-12-01T12:56:51.623Z,97.20
2018-12-01T12:59:26.823Z,96.60
2018-12-01T13:02:01.728Z,95.50
2018-12-01T13:04:36.728Z,95.60
2018-12-01T13:07:11.646Z,95.70
2018-12-01T13:09:46.425Z,93.20
2018-12-01T13:12:21.621Z,93.40
2018-12-01T13:14:57.066Z,93.80
2018-12-01T13:17:32.583Z,93.80
2018-12-01T13:20:15.301Z,93.10
2018-12-01T13:22:55.928Z,91.80
2018-12-01T13:25:30.923Z,92.70
2018-12-01T13:28:14.228Z,93.10
2018-12-01T13:30:50.621Z,92.20
2018-12-01T13:33:26.683Z,91.30
2018-12-01T13:36:01.598Z,90.40
2018-12-01T13:38:36.350Z,91.20
2018-12-01T13:41:11.299Z,91.80
2018-12-01T13:43:46.255Z,92.30
2018-12-01T13:46:21.055Z,92.60
2018-12-01T13:48:56.046Z,92.90
2018-12-01T13:51:30.911Z,93.20
2018-12-01T13:54:06.086Z,93.20
2018-12-01T13:56:40.927Z,94.00
2018-12-01T13:59:15.829Z,94.40
2018-12-01T14:01:50.719Z,94.30
2018-12-01T14:04:25.821Z,94.60
2018-12-01T14:07:00.976Z,95.20
2018-12-01T14:09:36.026Z,95.10
2018-12-01T14:12:10.728Z,95.50
2018-12-01T14:14:45.692Z,95.60
2018-12-01T14:17:20.572Z,95.50
2018-12-01T14:19:55.491Z,95.70
2018-12-01T14:22:31.205Z,95.50
2018-12-01T14:25:07.815Z,95.70
2018-12-01T14:27:49.986Z,96.30
2018-12-01T14:30:25.019Z,96.40
2018-12-01T14:33:00.406Z,96.40
2018-12-01T14:35:36.716Z,96.70
2018-12-01T14:38:16.975Z,97.40
2018-12-01T14:40:51.919Z,97.80
2018-12-01T14:43:26.693Z,98.00
2018-12-01T14:46:01.722Z,98.60
2018-12-01T14:48:36.627Z,99.10
2018-12-01T14:51:11.553Z,99.40
2018-12-01T14:53:46.479Z,99.90
2018-12-01T14:56:21.602Z,99.90
2018-12-01T14:58:56.489Z,99.90
2018-12-01T15:01:31.307Z,99.90
2018-12-01T15:04:09.133Z,99.90
2018-12-01T15:06:43.968Z,99.90
2018-12-01T15:09:18.904Z,99.90
2018-12-01T15:11:53.843Z,99.90
2018-12-01T15:14:28.541Z,99.90
2018-12-01T15:17:03.377Z,99.90
2018-12-01T15:19:38.230Z,99.90
2018-12-01T15:22:13.153Z,99.90
2018-12-01T15:24:48.246Z,99.90
2018-12-01T15:27:23.014Z,99.90
2018-12-01T15:29:57.941Z,99.90
2018-12-01T15:32:33.035Z,99.90
2018-12-01T15:35:12.688Z,99.90
2018-12-01T15:37:47.560Z,99.90
2018-12-01T15:40:22.389Z,99.90
2018-12-01T15:42:57.206Z,99.90
2018-12-01T15:45:32.043Z,99.90
2018-12-01T15:48:07.597Z,99.90
2018-12-01T15:50:42.329Z,99.90
2018-12-01T15:53:16.982Z,99.90
2018-12-01T15:56:04.249Z,99.90
2018-12-01T16:01:31.100Z,99.90
2018-12-01T16:04:14.148Z,99.90
2018-12-01T16:06:54.303Z,99.90
2018-12-01T16:09:34.131Z,99.90
2018-12-01T16:12:13.756Z,99.90
2018-12-01T16:14:52.424Z,99.90
2018-12-01T16:17:31.793Z,99.90
2018-12-01T16:20:16.544Z,99.90
2018-12-01T16:22:59.970Z,99.90
2018-12-01T16:25:39.717Z,99.90
2018-12-01T16:28:19.881Z,99.90
2018-12-01T16:30:58.516Z,99.90
2018-12-01T16:33:37.968Z,99.90
2018-12-01T16:36:21.978Z,99.90
2018-12-01T16:39:01.643Z,99.90
2018-12-01T16:41:41.811Z,99.90
2018-12-01T16:44:21.086Z,99.90
2018-12-01T16:46:59.971Z,99.90
2018-12-01T16:49:39.427Z,99.90
2018-12-01T16:52:18.798Z,99.90
2018-12-01T16:54:58.248Z,99.90
2018-12-01T16:57:37.469Z,99.90
2018-12-01T17:00:25.928Z,99.90
2018-12-01T17:03:11.679Z,99.90
2018-12-01T17:05:59.091Z,99.90
2018-12-01T17:08:43.478Z,99.90
2018-12-01T17:11:28.249Z,99.90
2018-12-01T17:14:13.113Z,99.90
2018-12-01T17:16:52.907Z,99.90
2018-12-01T17:19:32.147Z,99.90
2018-12-01T17:22:11.123Z,99.90
2018-12-01T17:24:50.596Z,99.90
2018-12-01T17:30:34.115Z,99.90
2018-12-01T17:33:14.003Z,99.90
2018-12-01T17:35:52.844Z,99.90
2018-12-01T17:38:32.284Z,99.90
2018-12-01T17:41:26.064Z,99.90
2018-12-01T17:44:11.344Z,99.90
2018-12-01T17:46:50.880Z,99.90
2018-12-01T17:49:30.032Z,99.90
2018-12-01T17:52:09.420Z,99.90
2018-12-01T17:54:53.123Z,99.90
2018-12-01T17:57:37.241Z,99.90
2018-12-01T18:00:22.807Z,99.90
2018-12-01T18:03:06.307Z,99.90
2018-12-01T18:05:51.344Z,99.90
2018-12-01T18:08:34.065Z,99.90
2018-12-01T18:11:19.281Z,99.90
2018-12-01T18:14:03.176Z,99.90
2018-12-01T18:16:47.476Z,99.90
2018-12-01T18:19:32.788Z,99.90
2018-12-01T18:22:12.282Z,99.90
2018-12-01T18:24:51.411Z,99.90
2018-12-01T18:27:30.553Z,99.90
2018-12-01T18:30:20.126Z,99.90
2018-12-01T18:33:03.593Z,99.90
2018-12-01T18:35:48.343Z,99.90
2018-12-01T18:38:28.175Z,99.90
2018-12-01T18:41:07.897Z,99.90
2018-12-01T18:43:50.502Z,99.90
2018-12-01T18:53:44.123Z,99.90
2018-12-01T18:56:28.300Z,99.90
2018-12-01T18:59:08.264Z,99.90
2018-12-01T19:01:47.831Z,99.90
2018-12-01T19:04:27.120Z,99.90
2018-12-01T19:07:11.113Z,99.90
2018-12-01T19:09:50.460Z,99.90
2018-12-01T19:12:34.763Z,99.90
2018-12-01T19:15:23.923Z,99.90
2018-12-01T19:18:03.148Z,99.90
2018-12-01T19:20:47.440Z,99.90
2018-12-01T19:23:32.104Z,99.90
2018-12-01T19:26:11.714Z,99.90
2018-12-01T19:28:51.012Z,99.90
2018-12-01T19:31:30.357Z,99.90
2018-12-01T19:34:10.084Z,99.90
2018-12-01T19:36:52.782Z,99.90
2018-12-01T19:39:37.073Z,99.90
2018-12-01T19:42:17.869Z,99.90
2018-12-01T19:44:56.683Z,99.90
2018-12-01T19:47:36.487Z,99.90
2018-12-01T19:50:24.996Z,99.90
2018-12-01T19:53:05.546Z,99.90
2018-12-01T19:55:44.770Z,99.90
2018-12-01T19:58:29.342Z,99.90
2018-12-01T20:01:08.767Z,99.90
2018-12-01T20:03:52.585Z,99.90
2018-12-01T20:06:32.095Z,99.90
2018-12-01T20:09:15.601Z,99.90
2018-12-01T20:11:59.291Z,99.90
2018-12-01T20:14:39.555Z,99.90
2018-12-01T20:17:18.845Z,99.90
2018-12-01T20:20:03.218Z,99.90
2018-12-01T20:22:47.092Z,99.90
2018-12-01T20:25:27.515Z,99.90
2018-12-01T20:28:06.745Z,99.90
2018-12-01T20:30:46.093Z,99.90
2018-12-01T20:33:25.573Z,99.90
2018-12-01T20:36:24.751Z,99.90
2018-12-01T20:39:14.515Z,99.90
2018-12-01T20:41:53.745Z,99.90
2018-12-01T20:44:32.766Z,99.90
2018-12-01T20:47:16.601Z,99.90
2018-12-01T20:50:01.454Z,99.90
2018-12-01T20:52:41.202Z,99.90
2018-12-01T20:55:25.552Z,99.90
2018-12-01T20:58:13.046Z,99.90
2018-12-01T21:00:53.863Z,99.90
2018-12-01T21:03:33.211Z,99.90
2018-12-01T21:06:17.383Z,99.90
2018-12-01T21:08:56.407Z,99.90
2018-12-01T21:11:40.752Z,99.90
2018-12-01T21:14:20.155Z,99.90
2018-12-01T21:17:04.462Z,99.90
2018-12-01T21:19:43.802Z,99.90
2018-12-01T21:22:23.984Z,99.90
2018-12-01T21:25:02.556Z,99.90
2018-12-01T21:27:42.287Z,99.90
2018-12-01T21:30:31.214Z,99.90
2018-12-01T21:33:26.022Z,99.90
2018-12-01T21:36:08.962Z,99.90
2018-12-01T21:38:49.208Z,99.90
2018-12-01T21:41:33.579Z,99.90
2018-12-01T21:44:17.854Z,99.90
2018-12-01T21:46:57.837Z,99.90
2018-12-01T21:49:36.770Z,99.90
2018-12-01T21:52:20.870Z,99.90
2018-12-01T21:55:00.229Z,99.90
2018-12-01T21:57:48.650Z,99.90
2018-12-01T22:00:38.039Z,99.90
2018-12-01T22:03:23.582Z,99.90
2018-12-01T22:06:12.533Z,99.90
2018-12-01T22:08:52.365Z,99.90
2018-12-01T22:11:46.585Z,99.80
2018-12-01T22:14:31.078Z,99.60
2018-12-01T22:17:14.437Z,99.50
2018-12-01T22:20:13.987Z,98.90
2018-12-01T22:23:08.259Z,99.20
2018-12-01T22:25:58.126Z,99.40
2018-12-01T22:28:47.124Z,99.20
2018-12-01T22:31:56.469Z,99.30
2018-12-01T22:34:36.334Z,99.60
2018-12-01T22:37:20.037Z,99.70
2018-12-01T22:39:59.989Z,99.90
2018-12-01T22:42:39.611Z,99.90
2018-12-01T22:45:22.914Z,99.90
2018-12-01T22:48:06.907Z,99.90
2018-12-01T22:53:40.909Z,99.90
2018-12-01T22:56:28.878Z,99.90
2018-12-01T22:59:05.507Z,99.90
2018-12-01T23:01:49.287Z,99.90
2018-12-01T23:04:32.624Z,99.90
2018-12-01T23:13:26.493Z,99.90
2018-12-01T23:16:16.470Z,99.90
2018-12-01T23:18:59.827Z,99.90
2018-12-01T23:21:49.444Z,99.90
2018-12-01T23:24:42.786Z,99.90
2018-12-01T23:30:31.669Z,99.90
2018-12-01T23:33:26.182Z,99.90
2018-12-01T23:36:06.093Z,99.90
2018-12-01T23:38:50.112Z,99.90
2018-12-01T23:41:39.436Z,99.90
2018-12-01T23:44:33.571Z,99.90
2018-12-01T23:47:13.304Z,99.90
2018-12-01T23:49:52.597Z,99.90
2018-12-01T23:52:32.272Z,99.90
2018-12-01T23:55:16.727Z,99.90
2018-12-01T23:57:55.699Z,99.90
